Terminal Aerodrome Forecast
Issued by NWS Corpus Christi, TX

Home | Current Version | Previous Version | Text Only | Print | Product List | Glossary On
Versions: 1 2 3 4 5 6 7 8 9 10 11 12 13 14 15 16 17 18 19 20
110
FTUS44 KCRP 232345 CCA
TAFVCT
TAF COR
KVCT 232345Z 2400/2424 17020G25KT P6SM SCT035
     FM240300 15012G18KT P6SM SCT250
     FM240900 16005KT P6SM BKN015 WS020/17040KT
     FM241200 17010G15KT P6SM BKN015
     FM241500 17015G25KT P6SM VCSH BKN020
     FM241800 18010G15KT P6SM VCTS SCT035CB BKN150 PROB30 2421/2424
      VRB20G30KT 3SM TSRA BKN030CB OVC150=

USA.gov is the U.S. government's official web portal to all federal, state and local government web resources and services.